Carl, Iowa
Current Conditions -  °F | °C
As of 11:15 AM on Friday 24 Oct 2014 (Local Time) from KCSQ Reporting Station
Haze Haze  
Wind Chill: 16°   Ceiling: 300
Heat Index: 16°   Visibility: 1.2mi
Dew Point: 16°   Wind: 15mph
Humidity: 100%   Direction: 200°SSW
Pressure: 29.97"   Gusts: NA
Location:  41.0285°N, 94.7568°W
Report Text: KCSQ 241615Z AUTO 20013KT 1 1/4SM BR OVC003 16/16 A2997 RMK AO2
Loading
Personal Weather Stations






























Interactive Weather Map
Tropical Storm Tracking
New forecast layout! Learn more

10-Day Weather Forecast

Advertisements
Track Severe Weather on mobile